createdAt,value
2022-10-20T00:01:46.529Z,39.85
2022-10-20T00:04:14.960Z,38.75
2022-10-20T00:06:42.105Z,40.38
2022-10-20T00:09:09.293Z,38.67
2022-10-20T00:11:36.602Z,36.88
2022-10-20T00:14:05.191Z,39.00
2022-10-20T00:16:37.273Z,40.08
2022-10-20T00:19:05.209Z,38.85
2022-10-20T00:21:32.928Z,38.65
2022-10-20T00:24:01.515Z,39.58
2022-10-20T00:26:30.927Z,38.28
2022-10-20T00:28:58.833Z,37.15
2022-10-20T00:31:26.661Z,35.97
2022-10-20T00:33:54.441Z,37.75
2022-10-20T00:36:23.768Z,35.03
2022-10-20T00:38:52.244Z,37.10
2022-10-20T00:41:21.540Z,33.55
2022-10-20T00:44:00.120Z,32.85
2022-10-20T00:46:42.521Z,34.25
2022-10-20T00:49:25.932Z,32.88
2022-10-20T00:51:54.807Z,31.83
2022-10-20T00:54:27.157Z,30.33
2022-10-20T00:56:57.125Z,32.00
2022-10-20T00:59:32.085Z,32.13
2022-10-20T01:02:01.682Z,31.73
2022-10-20T01:04:31.566Z,29.95
2022-10-20T01:06:59.572Z,31.15
2022-10-20T01:09:27.311Z,29.40
2022-10-20T01:12:19.243Z,30.13
2022-10-20T01:15:10.737Z,30.48
2022-10-20T01:17:49.017Z,30.98
2022-10-20T01:21:04.995Z,30.17
2022-10-20T01:23:52.972Z,30.45
2022-10-20T01:26:57.653Z,29.58
2022-10-20T01:30:07.181Z,30.38
2022-10-20T01:33:09.900Z,29.10
2022-10-20T01:36:06.588Z,29.65
2022-10-20T01:39:15.288Z,31.60
2022-10-20T01:42:12.513Z,31.10
2022-10-20T01:44:41.361Z,30.27
2022-10-20T01:47:11.686Z,31.23
2022-10-20T01:49:44.660Z,33.42
2022-10-20T01:52:12.724Z,33.35
2022-10-20T01:54:40.425Z,34.60
2022-10-20T01:57:45.951Z,34.58
2022-10-20T02:00:16.815Z,32.60
2022-10-20T02:03:40.853Z,31.10
2022-10-20T02:06:35.381Z,33.53
2022-10-20T02:09:16.084Z,32.30
2022-10-20T02:12:07.860Z,33.45
2022-10-20T02:14:37.716Z,32.47
2022-10-20T02:17:11.445Z,31.30
2022-10-20T02:19:43.749Z,31.85
2022-10-20T02:22:15.144Z,30.65
2022-10-20T02:24:44.662Z,30.67
2022-10-20T02:27:28.157Z,29.98
2022-10-20T02:30:10.464Z,30.83
2022-10-20T02:32:41.136Z,30.40
2022-10-20T02:35:14.575Z,28.63
2022-10-20T02:37:41.961Z,27.30
2022-10-20T02:40:10.036Z,29.13
2022-10-20T02:42:38.600Z,29.98
2022-10-20T02:45:07.517Z,28.00
2022-10-20T02:47:35.215Z,28.77
2022-10-20T02:50:02.886Z,28.63
2022-10-20T02:52:30.380Z,28.88
2022-10-20T02:54:57.630Z,28.80
2022-10-20T02:57:24.745Z,27.95
2022-10-20T02:59:51.960Z,28.98
2022-10-20T03:02:19.378Z,27.75
2022-10-20T03:04:46.505Z,27.05
2022-10-20T03:07:14.510Z,27.77
2022-10-20T03:09:41.849Z,27.95
2022-10-20T03:12:09.129Z,27.73
2022-10-20T03:14:36.244Z,27.80
2022-10-20T03:17:03.508Z,28.90
2022-10-20T03:19:30.801Z,28.85
2022-10-20T03:21:57.981Z,27.83
2022-10-20T03:24:25.285Z,31.60
2022-10-20T03:26:52.483Z,30.63
2022-10-20T03:29:19.712Z,29.65
2022-10-20T03:31:46.971Z,29.25
2022-10-20T03:34:14.333Z,29.23
2022-10-20T03:36:41.572Z,29.77
2022-10-20T03:39:08.777Z,29.83
2022-10-20T03:41:35.995Z,28.90
2022-10-20T03:44:03.165Z,28.83
2022-10-20T03:46:30.312Z,26.50
2022-10-20T03:48:57.478Z,29.05
2022-10-20T03:51:24.770Z,26.85
2022-10-20T03:53:51.944Z,26.90
2022-10-20T03:56:21.168Z,27.13
2022-10-20T03:58:48.745Z,26.42
2022-10-20T04:01:22.312Z,26.48
2022-10-20T04:03:49.483Z,26.38
2022-10-20T04:06:16.868Z,26.17
2022-10-20T04:08:44.194Z,24.58
2022-10-20T04:11:11.970Z,25.67
2022-10-20T04:13:39.205Z,24.23
2022-10-20T04:16:07.310Z,24.50
2022-10-20T04:18:34.589Z,25.55
2022-10-20T04:21:01.764Z,24.38
2022-10-20T04:23:28.865Z,23.75
2022-10-20T04:25:56.057Z,23.90
2022-10-20T04:28:23.340Z,22.77
2022-10-20T04:30:50.563Z,23.08
2022-10-20T04:33:17.788Z,21.75
2022-10-20T04:35:45.079Z,22.52
2022-10-20T04:38:12.305Z,22.58
2022-10-20T04:40:39.532Z,20.48
2022-10-20T04:43:06.671Z,21.83
2022-10-20T04:45:33.949Z,22.88
2022-10-20T04:48:02.239Z,22.60
2022-10-20T04:50:29.404Z,21.63
2022-10-20T04:53:08.395Z,22.35
2022-10-20T04:55:36.223Z,20.20
2022-10-20T04:58:03.883Z,19.83
2022-10-20T05:00:31.015Z,18.50
2022-10-20T05:02:58.328Z,19.65
2022-10-20T05:05:25.541Z,19.10
2022-10-20T05:07:52.687Z,17.23
2022-10-20T05:10:20.722Z,18.05
2022-10-20T05:12:47.891Z,16.98
2022-10-20T05:15:15.506Z,16.88
2022-10-20T05:17:43.019Z,16.95
2022-10-20T05:20:10.640Z,16.45
2022-10-20T05:22:38.170Z,17.17
2022-10-20T05:25:31.382Z,16.42
2022-10-20T05:27:53.371Z,16.00
2022-10-20T05:30:20.581Z,16.70
2022-10-20T05:32:47.865Z,16.13
2022-10-20T05:35:15.237Z,16.02
2022-10-20T05:37:42.617Z,16.95
2022-10-20T05:40:10.857Z,16.30
2022-10-20T05:42:38.493Z,16.48
2022-10-20T05:45:08.130Z,16.23
2022-10-20T05:47:35.396Z,15.20
2022-10-20T05:50:02.773Z,15.48
2022-10-20T05:52:30.049Z,17.55
2022-10-20T05:54:57.392Z,20.25
2022-10-20T05:57:24.556Z,22.13
2022-10-20T05:59:51.708Z,21.42
2022-10-20T06:02:18.899Z,18.52
2022-10-20T06:04:46.057Z,23.67
2022-10-20T06:07:13.230Z,22.13
2022-10-20T06:09:41.116Z,21.65
2022-10-20T06:14:40.513Z,19.02
2022-10-20T06:17:07.809Z,20.27
2022-10-20T06:19:34.945Z,17.00
2022-10-20T06:22:05.496Z,17.05
2022-10-20T06:24:34.778Z,15.57
2022-10-20T06:27:01.965Z,15.75
2022-10-20T06:29:29.088Z,17.40
2022-10-20T06:31:56.825Z,16.05
2022-10-20T06:34:25.926Z,14.82
2022-10-20T06:36:53.434Z,14.35
2022-10-20T06:39:24.050Z,15.15
2022-10-20T06:41:54.494Z,16.42
2022-10-20T06:44:24.588Z,14.60
2022-10-20T06:46:55.082Z,15.18
2022-10-20T06:49:22.672Z,15.77
2022-10-20T06:51:50.407Z,16.48
2022-10-20T06:54:18.034Z,15.45
2022-10-20T06:56:45.260Z,15.80
2022-10-20T06:59:12.352Z,15.80
2022-10-20T07:01:40.399Z,17.00
2022-10-20T07:04:15.268Z,16.60
2022-10-20T07:06:45.848Z,16.52
2022-10-20T07:09:18.743Z,16.88
2022-10-20T07:11:46.612Z,17.92
2022-10-20T07:14:14.239Z,15.73
2022-10-20T07:16:41.698Z,16.17
2022-10-20T07:19:09.178Z,16.52
2022-10-20T07:21:38.328Z,18.10
2022-10-20T07:24:09.497Z,17.55
2022-10-20T07:26:40.310Z,19.50
2022-10-20T07:29:08.075Z,18.50
2022-10-20T07:31:46.962Z,17.85
2022-10-20T07:34:25.863Z,17.27
2022-10-20T07:36:56.187Z,21.23
2022-10-20T07:39:24.309Z,19.90
2022-10-20T07:41:51.915Z,19.83
2022-10-20T07:44:19.320Z,21.08
2022-10-20T07:46:46.616Z,19.45
2022-10-20T07:52:01.188Z,21.13
2022-10-20T07:54:28.293Z,18.10
2022-10-20T07:56:55.672Z,19.38
2022-10-20T07:59:22.895Z,18.38
2022-10-20T08:01:51.221Z,20.42
2022-10-20T08:04:19.681Z,19.40
2022-10-20T08:06:47.234Z,19.75
2022-10-20T08:09:14.353Z,20.35
2022-10-20T08:11:41.581Z,19.38
2022-10-20T08:14:08.805Z,19.60
2022-10-20T08:16:43.070Z,20.52
2022-10-20T08:21:54.234Z,26.00
2022-10-20T08:24:22.084Z,23.75
2022-10-20T08:26:49.224Z,27.73
2022-10-20T08:29:16.383Z,29.80
2022-10-20T08:31:44.877Z,27.67
2022-10-20T08:34:12.085Z,28.17
2022-10-20T08:36:39.347Z,26.08
2022-10-20T08:39:06.693Z,28.30
2022-10-20T08:44:35.064Z,28.33
2022-10-20T08:47:06.117Z,30.00
2022-10-20T08:49:35.129Z,36.40
2022-10-20T08:52:02.783Z,38.08
2022-10-20T08:54:34.007Z,39.28
2022-10-20T08:57:01.281Z,41.28
2022-10-20T08:59:36.546Z,41.40
2022-10-20T09:02:17.001Z,39.58
2022-10-20T09:04:59.590Z,40.78
2022-10-20T09:07:36.325Z,41.72
2022-10-20T09:10:18.589Z,43.50
2022-10-20T09:12:48.868Z,45.75
2022-10-20T09:15:18.594Z,48.05
2022-10-20T09:18:02.873Z,46.50
2022-10-20T09:20:53.603Z,52.20
2022-10-20T09:23:41.130Z,49.13
2022-10-20T09:26:30.634Z,47.17
2022-10-20T09:31:53.822Z,48.90
2022-10-20T09:34:23.118Z,48.85
2022-10-20T09:37:18.674Z,48.17
2022-10-20T09:39:59.243Z,45.85
2022-10-20T09:42:35.735Z,51.78
2022-10-20T09:45:26.804Z,46.30
2022-10-20T09:48:31.073Z,45.42
2022-10-20T09:51:00.264Z,46.95
2022-10-20T09:53:47.372Z,47.05
2022-10-20T09:56:36.141Z,45.17
2022-10-20T09:59:18.112Z,48.28
2022-10-20T10:02:02.961Z,47.72
2022-10-20T10:04:38.481Z,45.35
2022-10-20T10:07:26.831Z,44.80
2022-10-20T10:10:05.417Z,43.78
2022-10-20T10:12:36.323Z,46.10
2022-10-20T10:15:36.864Z,43.97
2022-10-20T10:18:21.829Z,43.47
2022-10-20T10:21:10.385Z,46.05
2022-10-20T10:23:57.813Z,45.25
2022-10-20T10:26:54.292Z,43.88
2022-10-20T10:29:30.077Z,43.35
2022-10-20T10:32:23.975Z,42.90
2022-10-20T10:35:29.211Z,42.28
2022-10-20T10:37:58.321Z,38.53
2022-10-20T10:41:29.768Z,38.83
2022-10-20T10:44:14.280Z,40.72
2022-10-20T10:47:33.318Z,40.45
2022-10-20T10:50:48.395Z,40.08
2022-10-20T10:53:36.819Z,42.20
2022-10-20T10:56:43.302Z,40.53
2022-10-20T10:59:40.719Z,40.03
2022-10-20T11:02:52.654Z,40.65
2022-10-20T11:05:56.570Z,38.15
2022-10-20T11:09:10.157Z,39.28
2022-10-20T11:12:29.122Z,40.42
2022-10-20T11:15:40.759Z,38.83
2022-10-20T11:18:44.942Z,36.15
2022-10-20T11:21:50.839Z,39.70
2022-10-20T11:25:09.811Z,37.72
2022-10-20T11:27:38.978Z,38.42
2022-10-20T11:30:21.351Z,37.90
2022-10-20T11:33:13.170Z,37.40
2022-10-20T11:36:09.351Z,37.88
2022-10-20T11:41:47.457Z,36.15
2022-10-20T11:44:40.790Z,37.55
2022-10-20T11:47:27.814Z,38.05
2022-10-20T11:49:55.039Z,36.72
2022-10-20T11:52:58.979Z,34.78
2022-10-20T11:56:27.264Z,35.17
2022-10-20T11:59:15.861Z,34.92
2022-10-20T12:02:29.453Z,34.10
2022-10-20T12:05:23.017Z,34.10
2022-10-20T12:08:49.475Z,34.05
2022-10-20T12:12:08.848Z,33.70
2022-10-20T12:14:51.038Z,33.40
2022-10-20T12:17:36.292Z,33.60
2022-10-20T12:20:21.834Z,31.90
2022-10-20T12:22:54.967Z,30.88
2022-10-20T12:25:25.417Z,32.63
2022-10-20T12:28:20.417Z,31.13
2022-10-20T12:31:03.179Z,31.58
2022-10-20T12:33:48.967Z,30.55
2022-10-20T12:38:55.078Z,30.02
2022-10-20T12:41:35.255Z,32.25
2022-10-20T12:44:18.750Z,29.52
2022-10-20T12:47:08.168Z,29.98
2022-10-20T12:49:53.048Z,31.45
2022-10-20T12:52:28.645Z,32.25
2022-10-20T12:55:09.076Z,30.67
2022-10-20T12:57:44.964Z,31.02
2022-10-20T13:00:23.992Z,32.25
2022-10-20T13:02:59.941Z,32.08
2022-10-20T13:05:46.718Z,31.98
2022-10-20T13:08:19.941Z,31.55
2022-10-20T13:10:49.224Z,31.25
2022-10-20T13:13:19.442Z,32.55
2022-10-20T13:15:52.538Z,33.17
2022-10-20T13:18:29.041Z,32.60
2022-10-20T13:21:31.844Z,31.08
2022-10-20T13:24:18.099Z,32.70
2022-10-20T13:26:54.217Z,32.90
2022-10-20T13:29:38.128Z,32.83
2022-10-20T13:32:25.335Z,32.42
2022-10-20T13:35:27.864Z,31.90
2022-10-20T13:38:35.938Z,31.40
2022-10-20T13:41:31.069Z,30.75
2022-10-20T13:44:38.750Z,30.95
2022-10-20T13:47:42.349Z,30.85
2022-10-20T13:50:30.090Z,31.50
2022-10-20T13:53:20.655Z,31.25
2022-10-20T13:56:38.265Z,32.47
2022-10-20T13:59:14.627Z,31.60
2022-10-20T14:01:51.496Z,31.48
2022-10-20T14:04:37.232Z,30.48
2022-10-20T14:07:13.054Z,31.27
2022-10-20T14:09:45.446Z,31.58
2022-10-20T14:12:25.339Z,30.00
2022-10-20T14:15:00.729Z,31.05
2022-10-20T14:17:29.248Z,32.67
2022-10-20T14:20:21.110Z,32.95
2022-10-20T14:22:49.578Z,31.17
2022-10-20T14:25:17.624Z,31.25
2022-10-20T14:27:45.214Z,31.20
2022-10-20T14:30:17.767Z,31.55
2022-10-20T14:32:48.373Z,31.55
2022-10-20T14:35:28.821Z,31.08
2022-10-20T14:38:24.969Z,31.70
2022-10-20T14:40:57.072Z,30.25
2022-10-20T14:43:43.908Z,31.45
2022-10-20T14:46:25.846Z,30.35
2022-10-20T14:48:53.012Z,30.98
2022-10-20T14:51:54.935Z,30.48
2022-10-20T14:54:31.365Z,30.15
2022-10-20T14:57:09.954Z,30.15
2022-10-20T15:00:22.673Z,30.95
2022-10-20T15:02:56.342Z,31.23
2022-10-20T15:05:26.476Z,29.65
2022-10-20T15:07:54.542Z,30.75
2022-10-20T15:10:26.111Z,30.95
2022-10-20T15:12:55.734Z,30.75
2022-10-20T15:15:35.408Z,31.33
2022-10-20T15:18:19.685Z,29.58
2022-10-20T15:20:48.945Z,29.67
2022-10-20T15:23:24.377Z,30.55
2022-10-20T15:28:40.602Z,31.40
2022-10-20T15:31:29.976Z,30.88
2022-10-20T15:33:58.701Z,30.35
2022-10-20T15:36:33.729Z,30.05
2022-10-20T15:39:01.174Z,30.65
2022-10-20T15:41:36.344Z,30.30
2022-10-20T15:44:23.868Z,29.60
2022-10-20T15:46:56.281Z,31.60
2022-10-20T15:49:23.893Z,31.20
2022-10-20T15:51:51.351Z,28.88
2022-10-20T15:54:21.929Z,31.15
2022-10-20T15:56:49.445Z,31.35
2022-10-20T15:59:16.576Z,29.65
2022-10-20T16:01:43.809Z,30.05
2022-10-20T16:04:19.632Z,30.80
2022-10-20T16:06:47.185Z,29.73
2022-10-20T16:09:16.046Z,30.85
2022-10-20T16:11:44.638Z,32.78
2022-10-20T16:14:13.451Z,32.05
2022-10-20T16:16:41.474Z,32.20
2022-10-20T16:19:08.940Z,32.15
2022-10-20T16:21:36.433Z,30.85
2022-10-20T16:24:04.970Z,37.42
2022-10-20T16:26:33.951Z,38.65
2022-10-20T16:29:01.209Z,32.03
2022-10-20T16:31:29.327Z,31.95
2022-10-20T16:34:00.144Z,28.65
2022-10-20T16:36:27.463Z,30.25
2022-10-20T16:38:57.355Z,30.25
2022-10-20T16:41:24.680Z,30.63
2022-10-20T16:43:52.094Z,31.27
2022-10-20T16:46:19.358Z,30.60
2022-10-20T16:48:48.198Z,29.75
2022-10-20T16:51:17.549Z,32.50
2022-10-20T16:53:45.189Z,29.67
2022-10-20T16:56:15.420Z,32.53
2022-10-20T16:58:45.827Z,32.08
2022-10-20T17:01:16.243Z,29.83
2022-10-20T17:03:48.355Z,29.75
2022-10-20T17:06:22.488Z,30.63
2022-10-20T17:08:50.851Z,30.98
2022-10-20T17:11:32.174Z,30.98
2022-10-20T17:14:00.021Z,32.65
2022-10-20T17:16:34.434Z,32.25
2022-10-20T17:19:02.908Z,33.05
2022-10-20T17:21:32.392Z,30.80
2022-10-20T17:24:00.258Z,31.70
2022-10-20T17:26:30.830Z,30.65
2022-10-20T17:29:01.291Z,31.52
2022-10-20T17:31:30.318Z,30.17
2022-10-20T17:33:59.372Z,31.90
2022-10-20T17:36:28.467Z,32.45
2022-10-20T17:39:06.298Z,34.03
2022-10-20T17:41:33.663Z,31.83
2022-10-20T17:44:04.545Z,32.90
2022-10-20T17:46:33.333Z,33.55
2022-10-20T17:49:03.578Z,32.22
2022-10-20T17:51:34.406Z,33.17
2022-10-20T17:54:03.525Z,38.72
2022-10-20T17:56:36.159Z,33.08
2022-10-20T17:59:07.363Z,35.30
2022-10-20T18:01:44.014Z,32.95
2022-10-20T18:04:16.558Z,33.53
2022-10-20T18:06:45.387Z,32.58
2022-10-20T18:09:17.153Z,33.75
2022-10-20T18:11:50.045Z,33.40
2022-10-20T18:14:17.753Z,33.20
2022-10-20T18:16:46.136Z,33.47
2022-10-20T18:19:18.291Z,34.85
2022-10-20T18:21:47.509Z,34.83
2022-10-20T18:24:17.612Z,33.92
2022-10-20T18:26:45.454Z,34.05
2022-10-20T18:29:14.955Z,33.60
2022-10-20T18:31:45.931Z,34.00
2022-10-20T18:34:20.361Z,33.17
2022-10-20T18:36:49.538Z,32.58
2022-10-20T18:39:17.714Z,35.85
2022-10-20T18:41:45.482Z,34.72
2022-10-20T18:44:17.713Z,37.10
2022-10-20T18:46:47.170Z,37.35
2022-10-20T18:49:21.445Z,39.60
2022-10-20T18:51:48.705Z,38.90
2022-10-20T18:54:18.411Z,38.97
2022-10-20T18:56:45.726Z,38.58
2022-10-20T18:59:16.264Z,41.28
2022-10-20T19:01:43.788Z,38.70
2022-10-20T19:04:12.656Z,38.05
2022-10-20T19:06:47.161Z,39.60
2022-10-20T19:09:21.088Z,37.72
2022-10-20T19:14:22.169Z,37.92
2022-10-20T19:16:50.092Z,41.20
2022-10-20T19:19:17.422Z,40.45
2022-10-20T19:21:45.096Z,41.05
2022-10-20T19:24:19.411Z,43.70
2022-10-20T19:26:57.559Z,43.83
2022-10-20T19:29:35.736Z,43.88
2022-10-20T19:32:05.760Z,43.88
2022-10-20T19:34:40.229Z,44.88
2022-10-20T19:37:08.098Z,43.38
2022-10-20T19:39:41.022Z,43.97
2022-10-20T19:42:10.214Z,45.97
2022-10-20T19:44:39.027Z,44.63
2022-10-20T19:47:07.971Z,43.72
2022-10-20T19:49:35.472Z,45.40
2022-10-20T19:52:04.539Z,45.60
2022-10-20T19:54:31.670Z,43.20
2022-10-20T19:56:59.353Z,45.83
2022-10-20T19:59:26.652Z,46.90
2022-10-20T20:01:53.942Z,45.83
2022-10-20T20:04:21.213Z,45.58
2022-10-20T20:06:48.879Z,45.47
2022-10-20T20:09:16.384Z,44.45
2022-10-20T20:11:44.352Z,43.53
2022-10-20T20:14:19.216Z,42.65
2022-10-20T20:16:47.523Z,41.63
2022-10-20T20:19:17.182Z,40.90
2022-10-20T20:21:45.841Z,42.40
2022-10-20T20:24:14.281Z,43.00
2022-10-20T20:26:44.524Z,40.65
2022-10-20T20:29:12.130Z,40.53
2022-10-20T20:31:39.384Z,42.25
2022-10-20T20:34:06.678Z,40.72
2022-10-20T20:36:34.243Z,38.38
2022-10-20T20:39:02.074Z,39.15
2022-10-20T20:41:31.092Z,38.40
2022-10-20T20:44:01.026Z,38.33
2022-10-20T20:46:31.019Z,38.38
2022-10-20T20:48:58.576Z,37.35
2022-10-20T20:51:26.966Z,37.15
2022-10-20T20:53:55.023Z,39.58
2022-10-20T20:56:24.622Z,38.35
2022-10-20T20:58:55.309Z,40.22
2022-10-20T21:01:29.148Z,37.97
2022-10-20T21:04:00.657Z,39.45
2022-10-20T21:06:34.000Z,37.75
2022-10-20T21:09:09.248Z,38.58
2022-10-20T21:11:37.053Z,40.35
2022-10-20T21:14:04.921Z,38.13
2022-10-20T21:16:36.655Z,40.42
2022-10-20T21:19:10.036Z,40.42
2022-10-20T21:21:50.384Z,41.50
2022-10-20T21:24:18.453Z,42.20
2022-10-20T21:26:45.818Z,43.22
2022-10-20T21:29:12.974Z,43.53
2022-10-20T21:31:41.039Z,45.70
2022-10-20T21:34:08.623Z,43.20
2022-10-20T21:36:39.952Z,43.17
2022-10-20T21:39:13.012Z,43.20
2022-10-20T21:41:40.460Z,43.30
2022-10-20T21:44:09.593Z,43.22
2022-10-20T21:46:47.139Z,43.53
2022-10-20T21:49:20.235Z,43.83
2022-10-20T21:51:57.394Z,42.80
2022-10-20T21:54:28.413Z,44.38
2022-10-20T21:56:56.663Z,45.45
2022-10-20T21:59:30.343Z,46.15
2022-10-20T22:02:01.297Z,47.20
2022-10-20T22:04:30.461Z,46.15
2022-10-20T22:06:59.299Z,46.75
2022-10-20T22:09:26.840Z,45.15
2022-10-20T22:11:56.546Z,44.28
2022-10-20T22:14:24.145Z,45.80
2022-10-20T22:16:51.962Z,44.65
2022-10-20T22:19:23.570Z,45.75
2022-10-20T22:21:52.702Z,44.38
2022-10-20T22:24:21.818Z,44.35
2022-10-20T22:26:52.012Z,43.35
2022-10-20T22:29:22.681Z,45.35
2022-10-20T22:31:50.122Z,44.65
2022-10-20T22:34:17.449Z,43.97
2022-10-20T22:36:44.786Z,42.75
2022-10-20T22:41:45.681Z,41.38
2022-10-20T22:44:13.005Z,42.45
2022-10-20T22:46:40.144Z,42.83
2022-10-20T22:49:07.340Z,42.33
2022-10-20T22:51:34.518Z,42.33
2022-10-20T22:54:01.783Z,40.20
2022-10-20T22:56:29.057Z,42.10
2022-10-20T22:58:56.189Z,42.53
2022-10-20T23:01:24.201Z,42.40
2022-10-20T23:03:51.972Z,39.25
2022-10-20T23:06:25.024Z,41.05
2022-10-20T23:08:56.308Z,42.80
2022-10-20T23:11:23.810Z,42.72
2022-10-20T23:13:51.443Z,43.20
2022-10-20T23:16:19.558Z,42.60
2022-10-20T23:18:47.688Z,44.83
2022-10-20T23:21:15.256Z,43.25
2022-10-20T23:23:44.760Z,45.55
2022-10-20T23:26:13.445Z,47.30
2022-10-20T23:28:40.741Z,48.97
2022-10-20T23:31:19.920Z,50.15
2022-10-20T23:33:50.204Z,51.00
2022-10-20T23:36:17.669Z,49.38
2022-10-20T23:38:46.165Z,50.88
2022-10-20T23:41:14.629Z,50.05
2022-10-20T23:43:41.913Z,52.55
2022-10-20T23:46:12.042Z,50.95
2022-10-20T23:48:39.898Z,55.30
2022-10-20T23:51:08.041Z,54.38
2022-10-20T23:53:35.780Z,51.38
2022-10-20T23:56:03.459Z,52.78
2022-10-20T23:58:30.613Z,53.47
